sensor_id;sensor_type;location;lat;lon;timestamp;pressure;altitude;pressure_sealevel;temperature;humidity
28628;BME280;15815;46.760;19.604;2022-11-20T00:00:56;99954.41;;;2.51;98.52
28628;BME280;15815;46.760;19.604;2022-11-20T00:03:22;99961.34;;;2.44;97.92
28628;BME280;15815;46.760;19.604;2022-11-20T00:05:48;99982.66;;;2.56;98.16
28628;BME280;15815;46.760;19.604;2022-11-20T00:08:13;99979.59;;;2.45;97.52
28628;BME280;15815;46.760;19.604;2022-11-20T00:10:39;99974.78;;;2.42;98.24
28628;BME280;15815;46.760;19.604;2022-11-20T00:13:06;99988.50;;;2.51;98.25
28628;BME280;15815;46.760;19.604;2022-11-20T00:15:32;99975.06;;;2.53;98.15
28628;BME280;15815;46.760;19.604;2022-11-20T00:17:58;99979.59;;;2.45;98.04
28628;BME280;15815;46.760;19.604;2022-11-20T00:20:23;99948.31;;;2.29;98.31
28628;BME280;15815;46.760;19.604;2022-11-20T00:22:49;99970.03;;;2.43;97.86
28628;BME280;15815;46.760;19.604;2022-11-20T00:25:15;99968.25;;;2.35;97.86
28628;BME280;15815;46.760;19.604;2022-11-20T00:27:40;99962.78;;;2.38;97.86
28628;BME280;15815;46.760;19.604;2022-11-20T00:30:06;99963.31;;;2.44;98.68
28628;BME280;15815;46.760;19.604;2022-11-20T00:32:31;99956.09;;;2.39;98.65
28628;BME280;15815;46.760;19.604;2022-11-20T00:34:57;99946.16;;;2.38;98.17
28628;BME280;15815;46.760;19.604;2022-11-20T00:37:22;99942.94;;;2.36;98.04
28628;BME280;15815;46.760;19.604;2022-11-20T00:39:47;99941.50;;;2.42;98.00
28628;BME280;15815;46.760;19.604;2022-11-20T00:42:13;99938.81;;;2.46;98.36
28628;BME280;15815;46.760;19.604;2022-11-20T00:44:38;99920.09;;;2.43;98.48
28628;BME280;15815;46.760;19.604;2022-11-20T00:47:06;99923.31;;;2.45;98.60
28628;BME280;15815;46.760;19.604;2022-11-20T00:49:32;99918.84;;;2.40;98.64
28628;BME280;15815;46.760;19.604;2022-11-20T00:51:57;99904.03;;;2.33;99.04
28628;BME280;15815;46.760;19.604;2022-11-20T00:54:22;99918.34;;;2.35;98.80
28628;BME280;15815;46.760;19.604;2022-11-20T00:56:48;99917.69;;;2.41;98.78
28628;BME280;15815;46.760;19.604;2022-11-20T00:59:13;99895.91;;;2.24;98.56
28628;BME280;15815;46.760;19.604;2022-11-20T01:01:38;99904.81;;;2.33;98.71
28628;BME280;15815;46.760;19.604;2022-11-20T01:04:04;99903.03;;;2.41;98.66
28628;BME280;15815;46.760;19.604;2022-11-20T01:06:35;99893.38;;;2.35;98.68
28628;BME280;15815;46.760;19.604;2022-11-20T01:09:05;99901.78;;;2.38;98.15
28628;BME280;15815;46.760;19.604;2022-11-20T01:11:33;99908.03;;;2.35;98.48
28628;BME280;15815;46.760;19.604;2022-11-20T01:14:04;99901.63;;;2.31;98.39
28628;BME280;15815;46.760;19.604;2022-11-20T01:16:36;99897.69;;;2.32;98.71
28628;BME280;15815;46.760;19.604;2022-11-20T01:19:03;99911.91;;;2.31;99.14
28628;BME280;15815;46.760;19.604;2022-11-20T01:21:34;99897.59;;;2.29;99.05
28628;BME280;15815;46.760;19.604;2022-11-20T01:24:00;99891.06;;;2.21;98.80
28628;BME280;15815;46.760;19.604;2022-11-20T01:26:29;99895.53;;;2.26;99.23
28628;BME280;15815;46.760;19.604;2022-11-20T01:28:55;99903.13;;;2.29;99.75
28628;BME280;15815;46.760;19.604;2022-11-20T01:31:22;99896.78;;;2.28;99.55
28628;BME280;15815;46.760;19.604;2022-11-20T01:33:50;99895.09;;;2.24;99.81
28628;BME280;15815;46.760;19.604;2022-11-20T01:36:20;99906.19;;;2.24;98.92
28628;BME280;15815;46.760;19.604;2022-11-20T01:38:46;99911.53;;;2.16;99.57
28628;BME280;15815;46.760;19.604;2022-11-20T01:41:12;99915.56;;;2.19;99.79
28628;BME280;15815;46.760;19.604;2022-11-20T01:43:57;99902.41;;;2.16;99.39
28628;BME280;15815;46.760;19.604;2022-11-20T01:46:22;99910.38;;;2.17;99.50
28628;BME280;15815;46.760;19.604;2022-11-20T01:48:58;99916.72;;;2.18;99.93
28628;BME280;15815;46.760;19.604;2022-11-20T01:53:56;99910.38;;;2.17;99.48
28628;BME280;15815;46.760;19.604;2022-11-20T01:56:24;99917.19;;;2.20;99.28
28628;BME280;15815;46.760;19.604;2022-11-20T01:58:54;99901.16;;;2.13;99.35
28628;BME280;15815;46.760;19.604;2022-11-20T02:01:21;99893.38;;;2.19;99.32
28628;BME280;15815;46.760;19.604;2022-11-20T02:03:47;99889.34;;;2.16;99.91
28628;BME280;15815;46.760;19.604;2022-11-20T02:08:51;99898.41;;;2.29;99.36
28628;BME280;15815;46.760;19.604;2022-11-20T02:11:20;99896.63;;;2.21;99.50
28628;BME280;15815;46.760;19.604;2022-11-20T02:13:45;99897.59;;;2.29;99.84
28628;BME280;15815;46.760;19.604;2022-11-20T02:18:44;99904.75;;;2.30;98.98
28628;BME280;15815;46.760;19.604;2022-11-20T02:26:12;99894.53;;;2.34;99.55
28628;BME280;15815;46.760;19.604;2022-11-20T02:28:39;99867.38;;;2.24;99.83
28628;BME280;15815;46.760;19.604;2022-11-20T02:31:04;99876.28;;;2.33;99.85
28628;BME280;15815;46.760;19.604;2022-11-20T02:33:30;99881.56;;;2.38;100.00
28628;BME280;15815;46.760;19.604;2022-11-20T02:35:55;99892.13;;;2.48;99.92
28628;BME280;15815;46.760;19.604;2022-11-20T02:38:20;99884.97;;;2.47;99.94
28628;BME280;15815;46.760;19.604;2022-11-20T02:40:46;99864.91;;;2.38;100.00
28628;BME280;15815;46.760;19.604;2022-11-20T02:43:11;99877.97;;;2.53;100.00
28628;BME280;15815;46.760;19.604;2022-11-20T02:45:37;99838.34;;;2.37;100.00
28628;BME280;15815;46.760;19.604;2022-11-20T02:48:03;99848.44;;;2.45;100.00
28628;BME280;15815;46.760;19.604;2022-11-20T02:50:28;99834.56;;;2.45;100.00
28628;BME280;15815;46.760;19.604;2022-11-20T02:52:54;99829.00;;;2.45;100.00
28628;BME280;15815;46.760;19.604;2022-11-20T02:55:19;99836.53;;;2.44;100.00
28628;BME280;15815;46.760;19.604;2022-11-20T02:57:44;99841.28;;;2.44;100.00
28628;BME280;15815;46.760;19.604;2022-11-20T03:00:10;99844.50;;;2.46;100.00
28628;BME280;15815;46.760;19.604;2022-11-20T03:02:36;99859.28;;;2.50;100.00
28628;BME280;15815;46.760;19.604;2022-11-20T03:05:01;99844.78;;;2.41;100.00
28628;BME280;15815;46.760;19.604;2022-11-20T03:07:30;99858.91;;;2.52;100.00
28628;BME280;15815;46.760;19.604;2022-11-20T03:09:55;99844.63;;;2.34;100.00
28628;BME280;15815;46.760;19.604;2022-11-20T03:12:21;99892.00;;;2.60;100.00
28628;BME280;15815;46.760;19.604;2022-11-20T03:14:46;99884.84;;;2.59;100.00
28628;BME280;15815;46.760;19.604;2022-11-20T03:17:11;99880.91;;;2.60;100.00
28628;BME280;15815;46.760;19.604;2022-11-20T03:19:36;99899.59;;;2.63;99.89
28628;BME280;15815;46.760;19.604;2022-11-20T03:22:02;99908.34;;;2.65;100.00
28628;BME280;15815;46.760;19.604;2022-11-20T03:24:27;99906.47;;;2.69;99.73
28628;BME280;15815;46.760;19.604;2022-11-20T03:26:52;99897.69;;;2.67;99.80
28628;BME280;15815;46.760;19.604;2022-11-20T03:29:18;99895.72;;;2.68;99.92
28628;BME280;15815;46.760;19.604;2022-11-20T03:31:43;99905.19;;;2.83;99.92
28628;BME280;15815;46.760;19.604;2022-11-20T03:34:10;99901.19;;;2.80;99.82
28628;BME280;15815;46.760;19.604;2022-11-20T03:36:41;99897.88;;;2.74;99.26
28628;BME280;15815;46.760;19.604;2022-11-20T03:39:06;99906.75;;;2.64;99.63
28628;BME280;15815;46.760;19.604;2022-11-20T03:41:36;99912.44;;;2.71;99.35
28628;BME280;15815;46.760;19.604;2022-11-20T03:44:05;99911.56;;;2.67;99.09
28628;BME280;15815;46.760;19.604;2022-11-20T03:46:30;99899.72;;;2.51;99.00
28628;BME280;15815;46.760;19.604;2022-11-20T03:48:56;99903.66;;;2.50;99.18
28628;BME280;15815;46.760;19.604;2022-11-20T03:51:26;99912.41;;;2.52;99.24
28628;BME280;15815;46.760;19.604;2022-11-20T03:53:54;99908.19;;;2.58;99.69
28628;BME280;15815;46.760;19.604;2022-11-20T03:56:22;99893.44;;;2.54;99.61
28628;BME280;15815;46.760;19.604;2022-11-20T03:58:48;99892.13;;;2.48;99.07
28628;BME280;15815;46.760;19.604;2022-11-20T04:01:16;99882.81;;;2.40;98.76
28628;BME280;15815;46.760;19.604;2022-11-20T04:03:42;99883.06;;;2.51;98.85
28628;BME280;15815;46.760;19.604;2022-11-20T04:06:33;99871.97;;;2.51;98.59
28628;BME280;15815;46.760;19.604;2022-11-20T04:08:59;99858.28;;;2.42;98.54
28628;BME280;15815;46.760;19.604;2022-11-20T04:11:27;99849.53;;;2.40;98.95
28628;BME280;15815;46.760;19.604;2022-11-20T04:14:00;99855.34;;;2.51;99.59
28628;BME280;15815;46.760;19.604;2022-11-20T04:16:30;99861.84;;;2.59;99.02
28628;BME280;15815;46.760;19.604;2022-11-20T04:18:58;99863.91;;;2.46;98.79
28628;BME280;15815;46.760;19.604;2022-11-20T04:21:27;99867.41;;;2.43;99.07
28628;BME280;15815;46.760;19.604;2022-11-20T04:23:53;99822.81;;;2.16;98.66
28628;BME280;15815;46.760;19.604;2022-11-20T04:26:19;99853.47;;;2.39;98.15
28628;BME280;15815;46.760;19.604;2022-11-20T04:28:46;99835.41;;;2.30;98.94
28628;BME280;15815;46.760;19.604;2022-11-20T04:31:14;99839.94;;;2.38;98.22
28628;BME280;15815;46.760;19.604;2022-11-20T04:33:41;99836.66;;;2.32;97.96
28628;BME280;15815;46.760;19.604;2022-11-20T04:36:07;99843.72;;;2.30;98.53
28628;BME280;15815;46.760;19.604;2022-11-20T04:38:35;99830.88;;;2.22;98.39
28628;BME280;15815;46.760;19.604;2022-11-20T04:41:02;99830.88;;;2.22;98.20
28628;BME280;15815;46.760;19.604;2022-11-20T04:43:28;99822.56;;;2.22;98.11
28628;BME280;15815;46.760;19.604;2022-11-20T04:45:54;99823.88;;;2.28;97.59
28628;BME280;15815;46.760;19.604;2022-11-20T04:48:24;99830.66;;;2.30;98.23
28628;BME280;15815;46.760;19.604;2022-11-20T04:50:50;99849.56;;;2.25;97.07
28628;BME280;15815;46.760;19.604;2022-11-20T04:53:15;99850.16;;;2.34;96.46
28628;BME280;15815;46.760;19.604;2022-11-20T04:55:40;99839.72;;;2.27;97.27
28628;BME280;15815;46.760;19.604;2022-11-20T04:58:06;99829.44;;;2.28;97.06
28628;BME280;15815;46.760;19.604;2022-11-20T05:00:31;99821.09;;;2.28;96.84
28628;BME280;15815;46.760;19.604;2022-11-20T05:02:57;99805.34;;;2.32;97.17
28628;BME280;15815;46.760;19.604;2022-11-20T05:05:22;99786.66;;;2.29;96.66
28628;BME280;15815;46.760;19.604;2022-11-20T05:07:47;99788.47;;;2.21;96.55
28628;BME280;15815;46.760;19.604;2022-11-20T05:10:13;99784.78;;;2.33;97.06
28628;BME280;15815;46.760;19.604;2022-11-20T05:12:38;99785.06;;;2.28;97.23
28628;BME280;15815;46.760;19.604;2022-11-20T05:15:04;99771.47;;;2.23;97.15
28628;BME280;15815;46.760;19.604;2022-11-20T05:17:29;99765.31;;;2.13;97.05
28628;BME280;15815;46.760;19.604;2022-11-20T05:19:54;99790.53;;;2.24;97.02
28628;BME280;15815;46.760;19.604;2022-11-20T05:22:20;99798.63;;;2.33;96.53
28628;BME280;15815;46.760;19.604;2022-11-20T05:24:46;99813.09;;;2.42;96.30
28628;BME280;15815;46.760;19.604;2022-11-20T05:27:11;99796.16;;;2.28;96.21
28628;BME280;15815;46.760;19.604;2022-11-20T05:29:40;99777.28;;;2.17;96.47
28628;BME280;15815;46.760;19.604;2022-11-20T05:32:06;99798.03;;;2.24;96.53
28628;BME280;15815;46.760;19.604;2022-11-20T05:34:34;99793.75;;;2.26;96.02
28628;BME280;15815;46.760;19.604;2022-11-20T05:37:00;99792.13;;;2.25;96.58
28628;BME280;15815;46.760;19.604;2022-11-20T05:39:25;99783.19;;;2.16;96.19
28628;BME280;15815;46.760;19.604;2022-11-20T05:41:50;99789.72;;;2.24;96.11
28628;BME280;15815;46.760;19.604;2022-11-20T05:44:35;99790.44;;;2.21;95.78
28628;BME280;15815;46.760;19.604;2022-11-20T05:47:01;99795.28;;;2.24;95.77
28628;BME280;15815;46.760;19.604;2022-11-20T05:49:26;99796.44;;;2.23;95.49
28628;BME280;15815;46.760;19.604;2022-11-20T05:51:51;99806.38;;;2.24;95.25
28628;BME280;15815;46.760;19.604;2022-11-20T05:54:17;99798.22;;;2.15;94.64
28628;BME280;15815;46.760;19.604;2022-11-20T05:56:42;99791.16;;;2.17;95.24
28628;BME280;15815;46.760;19.604;2022-11-20T05:59:08;99824.03;;;2.35;95.08
28628;BME280;15815;46.760;19.604;2022-11-20T06:01:33;99838.78;;;2.39;94.80
28628;BME280;15815;46.760;19.604;2022-11-20T06:04:01;99813.75;;;2.35;95.09
28628;BME280;15815;46.760;19.604;2022-11-20T06:06:26;99818.22;;;2.40;94.68
28628;BME280;15815;46.760;19.604;2022-11-20T06:08:52;99827.97;;;2.34;94.19
28628;BME280;15815;46.760;19.604;2022-11-20T06:11:17;99827.97;;;2.34;94.72
28628;BME280;15815;46.760;19.604;2022-11-20T06:13:44;99850.03;;;2.46;94.59
28628;BME280;15815;46.760;19.604;2022-11-20T06:16:14;99833.97;;;2.36;94.78
28628;BME280;15815;46.760;19.604;2022-11-20T06:18:40;99839.06;;;2.34;94.94
28628;BME280;15815;46.760;19.604;2022-11-20T06:21:10;99858.09;;;2.51;95.34
28628;BME280;15815;46.760;19.604;2022-11-20T06:23:36;99856.28;;;2.59;96.50
28628;BME280;15815;46.760;19.604;2022-11-20T06:26:19;99845.84;;;2.52;95.09
28628;BME280;15815;46.760;19.604;2022-11-20T06:28:45;99822.66;;;2.44;95.34
28628;BME280;15815;46.760;19.604;2022-11-20T06:31:12;99806.13;;;2.48;95.55
28628;BME280;15815;46.760;19.604;2022-11-20T06:33:39;99818.38;;;2.47;95.33
28628;BME280;15815;46.760;19.604;2022-11-20T06:36:04;99839.94;;;2.54;95.46
28628;BME280;15815;46.760;19.604;2022-11-20T06:38:30;99869.06;;;2.63;95.29
28628;BME280;15815;46.760;19.604;2022-11-20T06:40:56;99893.03;;;2.71;95.06
28628;BME280;15815;46.760;19.604;2022-11-20T06:43:23;99903.59;;;2.82;95.11
28628;BME280;15815;46.760;19.604;2022-11-20T06:45:55;99886.78;;;2.74;95.95
28628;BME280;15815;46.760;19.604;2022-11-20T06:48:22;99870.38;;;2.69;95.72
28628;BME280;15815;46.760;19.604;2022-11-20T06:50:47;99878.69;;;2.85;95.49
28628;BME280;15815;46.760;19.604;2022-11-20T06:53:13;99878.47;;;2.94;95.74
28628;BME280;15815;46.760;19.604;2022-11-20T06:55:42;99866.91;;;2.92;95.72
28628;BME280;15815;46.760;19.604;2022-11-20T06:58:09;99848.59;;;2.87;95.51
28628;BME280;15815;46.760;19.604;2022-11-20T07:00:34;99856.53;;;2.89;95.07
28628;BME280;15815;46.760;19.604;2022-11-20T07:03:06;99859.91;;;2.98;95.70
28628;BME280;15815;46.760;19.604;2022-11-20T07:05:32;99861.63;;;3.02;95.35
28628;BME280;15815;46.760;19.604;2022-11-20T07:07:58;99847.19;;;2.97;95.25
28628;BME280;15815;46.760;19.604;2022-11-20T07:10:24;99843.41;;;3.05;95.36
28628;BME280;15815;46.760;19.604;2022-11-20T07:12:50;99841.59;;;3.13;95.04
28628;BME280;15815;46.760;19.604;2022-11-20T07:15:17;99839.84;;;3.04;94.09
28628;BME280;15815;46.760;19.604;2022-11-20T07:17:42;99831.72;;;3.15;93.98
28628;BME280;15815;46.760;19.604;2022-11-20T07:20:08;99844.84;;;3.18;94.12
28628;BME280;15815;46.760;19.604;2022-11-20T07:22:33;99845.22;;;3.17;93.65
28628;BME280;15815;46.760;19.604;2022-11-20T07:24:59;99843.25;;;3.17;93.65
28628;BME280;15815;46.760;19.604;2022-11-20T07:27:24;99866.34;;;3.21;93.05
28628;BME280;15815;46.760;19.604;2022-11-20T07:29:49;99875.53;;;3.25;93.52
28628;BME280;15815;46.760;19.604;2022-11-20T07:32:15;99860.78;;;3.21;93.26
28628;BME280;15815;46.760;19.604;2022-11-20T07:34:40;99865.78;;;3.31;93.83
28628;BME280;15815;46.760;19.604;2022-11-20T07:37:06;99878.25;;;3.41;93.80
28628;BME280;15815;46.760;19.604;2022-11-20T07:39:31;99889.13;;;3.50;94.05
28628;BME280;15815;46.760;19.604;2022-11-20T07:41:56;99892.41;;;3.55;93.55
28628;BME280;15815;46.760;19.604;2022-11-20T07:44:21;99892.50;;;3.59;94.12
28628;BME280;15815;46.760;19.604;2022-11-20T07:46:50;99882.25;;;3.63;94.00
28628;BME280;15815;46.760;19.604;2022-11-20T07:49:15;99889.78;;;3.62;93.52
28628;BME280;15815;46.760;19.604;2022-11-20T07:51:40;99887.56;;;3.71;93.40
28628;BME280;15815;46.760;19.604;2022-11-20T07:54:06;99897.50;;;3.72;92.86
28628;BME280;15815;46.760;19.604;2022-11-20T07:56:31;99891.22;;;3.76;92.75
28628;BME280;15815;46.760;19.604;2022-11-20T07:58:56;99911.38;;;3.92;93.09
28628;BME280;15815;46.760;19.604;2022-11-20T08:01:22;99903.34;;;3.87;91.65
28628;BME280;15815;46.760;19.604;2022-11-20T08:03:47;99890.50;;;4.01;91.83
28628;BME280;15815;46.760;19.604;2022-11-20T08:06:12;99911.81;;;4.17;92.19
28628;BME280;15815;46.760;19.604;2022-11-20T08:08:39;99924.94;;;4.39;91.26
28628;BME280;15815;46.760;19.604;2022-11-20T08:11:05;99931.34;;;4.43;92.24
28628;BME280;15815;46.760;19.604;2022-11-20T08:13:49;99935.41;;;4.49;92.00
28628;BME280;15815;46.760;19.604;2022-11-20T08:16:33;99914.66;;;4.43;89.21
28628;BME280;15815;46.760;19.604;2022-11-20T08:18:58;99910.03;;;5.07;89.62
28628;BME280;15815;46.760;19.604;2022-11-20T08:21:24;99908.41;;;5.06;88.66
28628;BME280;15815;46.760;19.604;2022-11-20T08:23:49;99913.19;;;5.06;89.07
28628;BME280;15815;46.760;19.604;2022-11-20T08:26:15;99932.25;;;5.04;88.41
28628;BME280;15815;46.760;19.604;2022-11-20T08:28:40;99920.53;;;4.91;87.38
28628;BME280;15815;46.760;19.604;2022-11-20T08:31:05;99924.34;;;5.06;89.03
28628;BME280;15815;46.760;19.604;2022-11-20T08:33:30;99939.50;;;5.08;89.17
28628;BME280;15815;46.760;19.604;2022-11-20T08:36:04;99949.78;;;5.04;87.64
28628;BME280;15815;46.760;19.604;2022-11-20T08:38:30;99956.66;;;5.14;88.19
28628;BME280;15815;46.760;19.604;2022-11-20T08:40:59;99957.81;;;5.09;89.16
28628;BME280;15815;46.760;19.604;2022-11-20T08:43:44;99943.41;;;5.04;88.43
28628;BME280;15815;46.760;19.604;2022-11-20T08:46:09;99939.06;;;5.06;87.85
28628;BME280;15815;46.760;19.604;2022-11-20T08:48:38;99913.25;;;5.09;87.00
28628;BME280;15815;46.760;19.604;2022-11-20T08:51:03;99907.22;;;5.37;88.08
28628;BME280;15815;46.760;19.604;2022-11-20T08:53:29;99930.31;;;5.38;86.09
28628;BME280;15815;46.760;19.604;2022-11-20T08:55:54;99950.78;;;5.49;86.77
28628;BME280;15815;46.760;19.604;2022-11-20T08:58:21;99953.19;;;5.50;86.89
28628;BME280;15815;46.760;19.604;2022-11-20T09:03:21;99963.22;;;5.55;86.41
28628;BME280;15815;46.760;19.604;2022-11-20T09:05:46;99965.16;;;5.84;86.48
28628;BME280;15815;46.760;19.604;2022-11-20T09:08:11;99962.38;;;5.84;86.59
28628;BME280;15815;46.760;19.604;2022-11-20T09:10:37;99941.09;;;5.73;86.75
28628;BME280;15815;46.760;19.604;2022-11-20T09:13:05;99955.69;;;5.59;85.27
28628;BME280;15815;46.760;19.604;2022-11-20T09:15:30;99956.09;;;5.61;85.24
28628;BME280;15815;46.760;19.604;2022-11-20T09:18:02;99963.56;;;5.83;86.42
28628;BME280;15815;46.760;19.604;2022-11-20T09:20:29;99960.75;;;5.83;85.85
28628;BME280;15815;46.760;19.604;2022-11-20T09:22:55;99981.13;;;5.87;85.69
28628;BME280;15815;46.760;19.604;2022-11-20T09:25:21;99990.81;;;5.97;85.35
28628;BME280;15815;46.760;19.604;2022-11-20T09:27:47;99971.31;;;6.01;86.96
28628;BME280;15815;46.760;19.604;2022-11-20T09:30:13;99986.06;;;6.35;86.56
28628;BME280;15815;46.760;19.604;2022-11-20T09:32:39;99975.56;;;6.65;86.21
28628;BME280;15815;46.760;19.604;2022-11-20T09:35:04;99944.03;;;6.65;86.89
28628;BME280;15815;46.760;19.604;2022-11-20T09:37:30;99954.09;;;6.76;85.76
28628;BME280;15815;46.760;19.604;2022-11-20T09:39:58;99942.94;;;6.80;85.29
28628;BME280;15815;46.760;19.604;2022-11-20T09:43:01;99927.72;;;6.74;83.08
28628;BME280;15815;46.760;19.604;2022-11-20T09:45:48;99935.84;;;6.93;84.46
28628;BME280;15815;46.760;19.604;2022-11-20T09:53:35;99949.41;;;6.88;83.73
28628;BME280;15815;46.760;19.604;2022-11-20T09:56:03;99932.63;;;6.88;84.47
28628;BME280;15815;46.760;19.604;2022-11-20T09:58:36;99924.63;;;6.86;84.37
28628;BME280;15815;46.760;19.604;2022-11-20T10:01:11;99921.38;;;6.80;84.19
28628;BME280;15815;46.760;19.604;2022-11-20T10:03:39;99934.56;;;6.80;82.14
28628;BME280;15815;46.760;19.604;2022-11-20T10:06:10;99932.81;;;6.58;82.23
28628;BME280;15815;46.760;19.604;2022-11-20T10:09:16;99960.00;;;6.68;81.57
28628;BME280;15815;46.760;19.604;2022-11-20T10:15:00;99979.25;;;6.80;83.23
28628;BME280;15815;46.760;19.604;2022-11-20T10:20:30;99958.22;;;6.93;83.41
28628;BME280;15815;46.760;19.604;2022-11-20T10:25:48;99956.47;;;6.78;82.89
28628;BME280;15815;46.760;19.604;2022-11-20T10:31:10;99956.56;;;6.85;84.28
28628;BME280;15815;46.760;19.604;2022-11-20T10:33:39;99964.56;;;6.90;82.54
28628;BME280;15815;46.760;19.604;2022-11-20T10:36:40;99971.03;;;7.01;84.52
28628;BME280;15815;46.760;19.604;2022-11-20T10:39:44;99971.41;;;7.00;84.66
28628;BME280;15815;46.760;19.604;2022-11-20T10:42:42;99945.84;;;6.94;83.57
28628;BME280;15815;46.760;19.604;2022-11-20T10:45:28;99957.84;;;6.98;84.31
28628;BME280;15815;46.760;19.604;2022-11-20T10:48:11;99945.44;;;6.92;83.65
28628;BME280;15815;46.760;19.604;2022-11-20T10:50:45;99925.78;;;6.81;83.26
28628;BME280;15815;46.760;19.604;2022-11-20T10:56:27;99940.03;;;7.24;84.67
28628;BME280;15815;46.760;19.604;2022-11-20T11:01:48;99926.69;;;7.80;83.99
28628;BME280;15815;46.760;19.604;2022-11-20T11:07:15;99906.78;;;8.84;80.35
28628;BME280;15815;46.760;19.604;2022-11-20T11:09:50;99907.56;;;8.95;83.44
28628;BME280;15815;46.760;19.604;2022-11-20T11:12:15;99911.56;;;9.09;84.90
28628;BME280;15815;46.760;19.604;2022-11-20T11:17:38;99914.78;;;8.93;82.06
28628;BME280;15815;46.760;19.604;2022-11-20T11:20:14;99918.31;;;9.18;83.59
28628;BME280;15815;46.760;19.604;2022-11-20T11:22:49;99892.31;;;9.00;81.14
28628;BME280;15815;46.760;19.604;2022-11-20T11:27:52;99883.59;;;8.30;75.83
28628;BME280;15815;46.760;19.604;2022-11-20T11:30:19;99890.00;;;8.24;77.16
28628;BME280;15815;46.760;19.604;2022-11-20T11:32:45;99896.34;;;8.17;76.84
28628;BME280;15815;46.760;19.604;2022-11-20T11:35:23;99933.19;;;8.30;75.14
28628;BME280;15815;46.760;19.604;2022-11-20T11:37:49;99912.78;;;8.29;76.73
28628;BME280;15815;46.760;19.604;2022-11-20T11:40:18;99915.19;;;8.31;77.50
28628;BME280;15815;46.760;19.604;2022-11-20T11:42:59;99929.22;;;8.34;77.86
28628;BME280;15815;46.760;19.604;2022-11-20T11:45:25;99936.44;;;8.53;77.18
28628;BME280;15815;46.760;19.604;2022-11-20T11:47:52;99934.81;;;8.88;78.04
28628;BME280;15815;46.760;19.604;2022-11-20T11:50:24;99926.78;;;8.97;77.34
28628;BME280;15815;46.760;19.604;2022-11-20T11:55:36;99923.19;;;8.86;78.30
28628;BME280;15815;46.760;19.604;2022-11-20T12:07:15;99924.25;;;9.45;77.70
28628;BME280;15815;46.760;19.604;2022-11-20T12:09:52;99927.84;;;9.49;81.14
28628;BME280;15815;46.760;19.604;2022-11-20T12:12:39;99948.28;;;9.46;77.42
28628;BME280;15815;46.760;19.604;2022-11-20T12:15:11;99947.47;;;9.49;78.09
28628;BME280;15815;46.760;19.604;2022-11-20T12:17:36;99931.47;;;9.43;78.97
28628;BME280;15815;46.760;19.604;2022-11-20T12:20:02;99925.41;;;9.51;78.94
28628;BME280;15815;46.760;19.604;2022-11-20T12:25:27;99925.50;;;9.37;78.24
28628;BME280;15815;46.760;19.604;2022-11-20T12:30:32;99931.94;;;9.23;78.32
28628;BME280;15815;46.760;19.604;2022-11-20T12:35:57;99925.94;;;9.18;77.37
28628;BME280;15815;46.760;19.604;2022-11-20T12:41:33;99898.75;;;9.08;78.28
28628;BME280;15815;46.760;19.604;2022-11-20T12:50:41;99921.16;;;9.08;79.62
28628;BME280;15815;46.760;19.604;2022-11-20T12:59:00;99907.56;;;8.95;79.28
28628;BME280;15815;46.760;19.604;2022-11-20T13:01:50;99880.38;;;8.82;80.56
28628;BME280;15815;46.760;19.604;2022-11-20T13:07:12;99892.38;;;8.82;79.59
28628;BME280;15815;46.760;19.604;2022-11-20T13:09:45;99895.59;;;8.81;81.53
28628;BME280;15815;46.760;19.604;2022-11-20T13:12:32;99904.78;;;8.74;80.14
28628;BME280;15815;46.760;19.604;2022-11-20T13:18:01;99859.59;;;8.61;80.05
28628;BME280;15815;46.760;19.604;2022-11-20T13:20:29;99848.78;;;8.60;80.59
28628;BME280;15815;46.760;19.604;2022-11-20T13:22:56;99879.56;;;8.71;80.68
28628;BME280;15815;46.760;19.604;2022-11-20T13:25:27;99884.78;;;8.68;80.96
28628;BME280;15815;46.760;19.604;2022-11-20T13:27:54;99885.59;;;8.48;81.10
28628;BME280;15815;46.760;19.604;2022-11-20T13:30:24;99861.19;;;8.45;81.17
28628;BME280;15815;46.760;19.604;2022-11-20T13:32:57;99875.59;;;8.61;80.80
28628;BME280;15815;46.760;19.604;2022-11-20T13:35:26;99882.00;;;8.58;80.56
28628;BME280;15815;46.760;19.604;2022-11-20T13:40:27;99872.41;;;8.45;82.15
28628;BME280;15815;46.760;19.604;2022-11-20T13:45:31;99869.97;;;8.18;81.72
28628;BME280;15815;46.760;19.604;2022-11-20T13:47:58;99886.78;;;8.29;82.63
28628;BME280;15815;46.760;19.604;2022-11-20T13:50:51;99918.81;;;8.39;80.79
28628;BME280;15815;46.760;19.604;2022-11-20T13:56:48;99932.00;;;8.34;82.11
28628;BME280;15815;46.760;19.604;2022-11-20T14:02:16;99942.78;;;8.25;81.87
28628;BME280;15815;46.760;19.604;2022-11-20T14:04:49;99946.78;;;8.28;82.47
28628;BME280;15815;46.760;19.604;2022-11-20T14:07:18;99934.75;;;8.13;82.43
28628;BME280;15815;46.760;19.604;2022-11-20T14:09:56;99910.72;;;7.91;81.57
28628;BME280;15815;46.760;19.604;2022-11-20T14:12:27;99943.94;;;8.03;83.10
28628;BME280;15815;46.760;19.604;2022-11-20T14:14:53;99937.13;;;8.04;81.74
28628;BME280;15815;46.760;19.604;2022-11-20T14:17:29;99937.53;;;8.10;83.09
28628;BME280;15815;46.760;19.604;2022-11-20T14:19:59;99914.28;;;7.77;83.09
28628;BME280;15815;46.760;19.604;2022-11-20T14:22:27;99905.06;;;7.69;83.49
28628;BME280;15815;46.760;19.604;2022-11-20T14:25:19;99921.06;;;7.76;82.21
28628;BME280;15815;46.760;19.604;2022-11-20T14:27:52;99928.69;;;7.83;83.53
28628;BME280;15815;46.760;19.604;2022-11-20T14:30:21;99939.88;;;7.90;83.65
28628;BME280;15815;46.760;19.604;2022-11-20T14:32:51;99927.47;;;7.73;83.82
28628;BME280;15815;46.760;19.604;2022-11-20T14:35:27;99933.81;;;7.66;84.12
28628;BME280;15815;46.760;19.604;2022-11-20T14:40:34;99956.19;;;7.66;83.58
28628;BME280;15815;46.760;19.604;2022-11-20T14:43:26;99943.06;;;7.74;84.12
28628;BME280;15815;46.760;19.604;2022-11-20T14:46:00;99907.00;;;7.51;83.69
28628;BME280;15815;46.760;19.604;2022-11-20T14:48:33;99930.56;;;7.50;83.37
28628;BME280;15815;46.760;19.604;2022-11-20T14:51:00;99946.53;;;7.46;84.80